Time;durP1;ratioP1;P1;durP2;ratioP2;P2;SDS_P1;SDS_P2;PMS_P1;PMS_P2;Temp;Humidity;BMP_temperature;BMP_pressure;BME280_temperature;BME280_humidity;BME280_pressure;Samples;Min_cycle;Max_cycle;Signal;HPM_P1;HPM_P2
2023/05/26 00:02:25;;;;;;;16.23;4.53;;;;;;;9.64;100.00;102641.34;5112727;28;20035;-75
2023/05/26 00:08:12;;;;;;;18.65;5.43;;;;;;;9.55;100.00;102634.31;5112594;28;20054;-75
2023/05/26 00:13:59;;;;;;;15.32;5.07;;;;;;;9.49;100.00;102642.97;5112522;28;20281;-75
2023/05/26 00:16:25;;;;;;;16.17;5.60;;;;;;;9.41;100.00;102641.13;5094043;28;20375;-75
2023/05/26 00:18:50;;;;;;;16.80;4.95;;;;;;;9.37;100.00;102636.25;5093223;28;20046;-76
2023/05/26 00:21:15;;;;;;;20.67;5.00;;;;;;;9.39;100.00;102656.47;5112202;28;20047;-76
2023/05/26 00:23:40;;;;;;;17.87;4.73;;;;;;;9.32;100.00;102645.59;5112156;28;20277;-76
2023/05/26 00:26:07;;;;;;;13.63;4.45;;;;;;;9.28;100.00;102646.09;5111383;28;20285;-75
2023/05/26 00:31:54;;;;;;;13.52;4.65;;;;;;;9.23;100.00;102656.38;5116183;28;20161;-77
2023/05/26 00:34:19;;;;;;;17.90;5.30;;;;;;;9.22;100.00;102652.88;5097429;28;20476;-76
2023/05/26 00:36:46;;;;;;;17.65;4.88;;;;;;;9.14;100.00;102652.84;5114897;28;20035;-76
2023/05/26 00:42:33;;;;;;;16.10;5.32;;;;;;;9.09;100.00;102657.00;5115886;28;20038;-76
2023/05/26 00:44:58;;;;;;;16.50;5.65;;;;;;;9.06;100.00;102660.00;5096618;28;20126;-76
2023/05/26 00:50:46;;;;;;;24.48;5.03;;;;;;;8.96;100.00;102655.63;5115649;28;20046;-76
2023/05/26 00:53:11;;;;;;;23.85;6.05;;;;;;;8.90;100.00;102652.72;5096986;28;20396;-75
2023/05/26 00:55:37;;;;;;;15.60;4.90;;;;;;;8.88;100.00;102652.03;5096438;28;20123;-76
2023/05/26 00:58:03;;;;;;;18.20;4.70;;;;;;;8.85;100.00;102655.03;5096992;28;20023;-76
2023/05/26 01:03:51;;;;;;;18.80;4.80;;;;;;;8.73;100.00;102645.63;5115562;28;20038;-75
2023/05/26 01:09:37;;;;;;;14.52;5.28;;;;;;;8.73;100.00;102656.31;5115252;28;20046;-75
2023/05/26 01:12:07;;;;;;;14.95;5.38;;;;;;;8.67;100.00;102660.41;5114951;28;20028;-74
2023/05/26 01:14:45;;;;;;;21.13;4.88;;;;;;;8.62;100.00;102660.03;5096159;28;20051;-74
2023/05/26 01:17:18;;;;;;;19.95;5.63;;;;;;;8.62;100.00;102660.03;5096732;28;20065;-74
2023/05/26 01:19:59;;;;;;;18.73;5.78;;;;;;;8.63;100.00;102661.72;5114147;28;20543;-74
2023/05/26 01:26:03;;;;;;;18.02;5.65;;;;;;;8.53;100.00;102656.50;5115223;28;20050;-74
2023/05/26 01:31:49;;;;;;;19.98;4.50;;;;;;;8.47;100.00;102664.28;5114809;28;20497;-74
2023/05/26 01:34:15;;;;;;;17.58;4.35;;;;;;;8.42;100.00;102670.09;5114641;28;20028;-75
2023/05/26 01:36:40;;;;;;;21.58;5.70;;;;;;;8.32;100.00;102654.13;5114739;28;20107;-75
2023/05/26 01:39:07;;;;;;;20.38;4.95;;;;;;;8.35;100.00;102663.66;5112902;28;20462;-76
2023/05/26 01:41:51;;;;;;;17.75;4.95;;;;;;;8.36;100.00;102671.50;5096472;28;20038;-76
2023/05/26 01:44:31;;;;;;;17.10;4.93;;;;;;;8.33;100.00;102674.50;5096299;28;20068;-76
2023/05/26 01:46:57;;;;;;;16.63;5.25;;;;;;;8.25;100.00;102663.75;5103160;28;20131;-77
2023/05/26 01:49:28;;;;;;;18.40;4.72;;;;;;;8.27;100.00;102675.06;5114413;28;20110;-76
2023/05/26 01:51:59;;;;;;;16.05;4.70;;;;;;;8.30;100.00;102671.25;5095715;28;20040;-76
2023/05/26 01:54:28;;;;;;;21.40;4.65;;;;;;;8.23;100.00;102673.72;5114392;28;20059;-75
2023/05/26 01:56:54;;;;;;;18.38;4.88;;;;;;;8.19;100.00;102667.03;5096156;28;20054;-76
2023/05/26 02:02:41;;;;;;;18.83;4.75;;;;;;;8.07;100.00;102670.88;5114578;28;20042;-75
2023/05/26 02:05:07;;;;;;;17.42;5.38;;;;;;;8.08;100.00;102672.56;5113421;28;20471;-76
2023/05/26 02:07:34;;;;;;;21.73;4.90;;;;;;;8.10;100.00;102675.94;5095862;28;20028;-75
2023/05/26 02:10:00;;;;;;;18.45;4.65;;;;;;;8.06;100.00;102663.88;5095792;28;20497;-75
2023/05/26 02:12:25;;;;;;;19.52;4.65;;;;;;;8.03;100.00;102673.03;5113503;28;20118;-76
2023/05/26 02:14:50;;;;;;;20.73;4.63;;;;;;;8.04;100.00;102681.84;5095967;28;20065;-74
2023/05/26 02:17:17;;;;;;;20.57;4.47;;;;;;;8.00;100.00;102669.84;5113170;28;20042;-74
2023/05/26 02:19:42;;;;;;;23.15;4.57;;;;;;;8.00;100.00;102680.47;5113966;28;20439;-76
2023/05/26 02:22:07;;;;;;;16.92;3.97;;;;;;;7.98;100.00;102679.81;5113881;28;20567;-75
2023/05/26 02:24:32;;;;;;;19.80;5.20;;;;;;;8.00;100.00;102691.13;5113149;28;20099;-75
2023/05/26 02:26:58;;;;;;;15.40;4.32;;;;;;;7.95;100.00;102685.44;5113719;28;20273;-75
2023/05/26 02:29:23;;;;;;;16.88;4.85;;;;;;;7.97;100.00;102686.13;5113251;28;20070;-75
2023/05/26 02:35:10;;;;;;;20.30;5.10;;;;;;;7.91;100.00;102689.41;5113894;28;20910;-76
2023/05/26 02:37:35;;;;;;;23.70;4.60;;;;;;;7.84;100.00;102689.16;5094809;28;20056;-75
2023/05/26 02:40:01;;;;;;;16.35;4.18;;;;;;;7.85;100.00;102687.34;5095450;28;20474;-75
2023/05/26 02:42:26;;;;;;;19.77;4.45;;;;;;;7.79;100.00;102686.09;5113018;28;20065;-75
2023/05/26 02:48:13;;;;;;;18.52;4.55;;;;;;;7.71;100.00;102676.19;5113453;28;20042;-76
2023/05/26 02:54:00;;;;;;;18.73;4.97;;;;;;;7.66;100.00;102678.47;5113833;28;20047;-76
2023/05/26 02:56:25;;;;;;;16.73;4.60;;;;;;;7.64;100.00;102684.94;5112727;28;20395;-75
2023/05/26 02:58:51;;;;;;;18.00;3.95;;;;;;;7.59;100.00;102689.88;5113457;28;20483;-75
2023/05/26 03:01:16;;;;;;;15.98;4.25;;;;;;;7.57;100.00;102679.38;5094219;28;20138;-75
2023/05/26 03:07:03;;;;;;;18.13;5.30;;;;;;;7.50;100.00;102672.94;5112992;28;20073;-76
2023/05/26 03:09:28;;;;;;;17.17;5.20;;;;;;;7.44;100.00;102668.22;5112851;28;20488;-77
2023/05/26 03:11:53;;;;;;;21.53;4.30;;;;;;;7.42;100.00;102675.53;5095097;28;20502;-77
2023/05/26 03:14:20;;;;;;;22.52;4.70;;;;;;;7.40;100.00;102685.47;5094415;28;20331;-77
2023/05/26 03:20:07;;;;;;;20.20;5.18;;;;;;;7.35;100.00;102685.94;5113217;28;20042;-76
2023/05/26 03:25:54;;;;;;;17.70;4.13;;;;;;;7.21;100.00;102694.38;5112155;28;20465;-77
2023/05/26 03:31:41;;;;;;;21.02;4.85;;;;;;;7.12;100.00;102697.91;5112956;28;20134;-77
2023/05/26 03:34:06;;;;;;;17.65;4.60;;;;;;;7.06;100.00;102693.19;5094711;28;20547;-76
2023/05/26 03:36:32;;;;;;;16.08;4.20;;;;;;;7.02;100.00;102695.31;5094543;28;20019;-79
2023/05/26 03:38:57;;;;;;;17.50;4.57;;;;;;;7.02;100.00;102705.09;5093861;28;20093;-75
2023/05/26 03:41:22;;;;;;;22.43;5.00;;;;;;;6.99;100.00;102708.91;5112666;28;20113;-75
2023/05/26 03:47:09;;;;;;;15.88;4.38;;;;;;;6.93;100.00;102704.13;5112655;28;20061;-75
2023/05/26 03:49:34;;;;;;;21.27;4.88;;;;;;;6.95;100.00;102714.66;5094172;28;20036;-76
2023/05/26 03:52:00;;;;;;;18.48;5.53;;;;;;;6.91;100.00;102713.22;5093804;28;20035;-76
2023/05/26 03:54:26;;;;;;;21.33;5.38;;;;;;;6.93;100.00;102717.44;5112618;28;20111;-76
2023/05/26 04:00:13;;;;;;;19.27;4.88;;;;;;;6.88;100.00;102703.72;5112964;28;20047;-75
2023/05/26 04:06:00;;;;;;;17.27;4.13;;;;;;;6.98;100.00;102712.53;5112885;28;20559;-75
2023/05/26 04:08:27;;;;;;;16.42;4.47;;;;;;;7.02;100.00;102707.75;5111627;28;20051;-74
2023/05/26 04:10:52;;;;;;;19.80;5.93;;;;;;;7.10;100.00;102715.84;5112354;28;20023;-74
2023/05/26 04:13:17;;;;;;;16.65;5.00;;;;;;;7.19;100.00;102722.94;5112284;28;20027;-74
2023/05/26 04:15:42;;;;;;;19.88;4.97;;;;;;;7.27;100.00;102715.09;5111402;28;20044;-75
2023/05/26 04:18:08;;;;;;;16.98;4.13;;;;;;;7.32;100.00;102717.31;5094091;28;20031;-74
2023/05/26 04:20:33;;;;;;;15.93;4.50;;;;;;;7.46;100.00;102719.50;5093213;28;20067;-75
2023/05/26 04:26:21;;;;;;;18.20;5.03;;;;;;;7.68;100.00;102735.06;5111994;28;20315;-78
2023/05/26 04:28:47;;;;;;;17.23;5.22;;;;;;;7.73;100.00;102723.97;5111487;28;20028;-78
2023/05/26 04:34:34;;;;;;;18.17;4.47;;;;;;;8.06;100.00;102733.16;5112330;28;20043;-79
2023/05/26 04:37:04;;;;;;;16.98;5.38;;;;;;;8.20;100.00;102740.66;5111913;28;20032;-79
2023/05/26 04:39:30;;;;;;;19.48;4.40;;;;;;;8.34;100.00;102724.13;5111280;28;20118;-77
2023/05/26 04:45:17;;;;;;;19.35;4.53;;;;;;;8.71;100.00;102740.97;5112018;28;20092;-79
2023/05/26 04:47:42;;;;;;;18.52;4.53;;;;;;;8.86;100.00;102736.72;5093800;28;20019;-82
2023/05/26 04:50:12;;;;;;;18.38;5.30;;;;;;;9.02;100.00;102736.00;5112264;28;20036;-82
2023/05/26 04:52:39;;;;;;;36.70;5.55;;;;;;;9.24;100.00;102738.13;5093479;28;20066;-82
2023/05/26 04:58:27;;;;;;;18.05;5.15;;;;;;;9.71;100.00;102740.38;5112275;28;20043;-81
2023/05/26 05:00:54;;;;;;;12.15;4.43;;;;;;;9.91;100.00;102753.28;5093711;28;20340;-80
2023/05/26 05:06:40;;;;;;;18.85;4.25;;;;;;;10.54;100.00;102751.94;5112029;28;20395;-78
2023/05/26 05:12:27;;;;;;;15.43;4.95;;;;;;;11.36;100.00;102756.19;5111471;28;20277;-78
2023/05/26 05:18:14;;;;;;;18.73;4.95;;;;;;;12.01;100.00;102753.25;5115475;28;20093;-76
2023/05/26 05:24:01;;;;;;;18.50;5.00;;;;;;;12.61;100.00;102763.22;5115359;28;20035;-74
2023/05/26 05:29:48;;;;;;;18.00;5.20;;;;;;;13.19;99.18;102767.09;5115141;28;20051;-77
2023/05/26 05:32:13;;;;;;;13.03;5.13;;;;;;;13.48;95.25;102763.56;5115354;28;20024;-77
2023/05/26 05:34:39;;;;;;;16.42;5.00;;;;;;;13.85;93.61;102759.91;5114058;28;20308;-78
2023/05/26 05:37:05;;;;;;;17.52;4.60;;;;;;;14.25;92.83;102771.97;5114882;28;20129;-74
2023/05/26 05:42:52;;;;;;;21.33;5.40;;;;;;;15.18;85.58;102779.03;5115159;28;20492;-81
2023/05/26 05:48:42;;;;;;;13.50;4.30;;;;;;;15.66;81.55;102771.06;5114597;28;20108;-78
2023/05/26 05:51:07;;;;;;;13.60;5.03;;;;;;;16.04;81.52;102779.50;5114692;28;20032;-78
2023/05/26 05:53:32;;;;;;;16.05;5.13;;;;;;;16.16;77.71;102779.72;5113928;28;20039;-79
2023/05/26 05:59:19;;;;;;;15.32;5.03;;;;;;;16.94;77.27;102783.59;5114795;28;20117;-86
2023/05/26 06:01:45;;;;;;;16.08;5.38;;;;;;;17.21;74.76;102789.81;5114705;28;20031;-86
2023/05/26 06:04:10;;;;;;;13.83;4.87;;;;;;;17.31;70.44;102797.47;5114302;28;20020;-85
2023/05/26 06:06:36;;;;;;;14.50;5.00;;;;;;;17.32;72.37;102791.88;5095642;28;20277;-79
2023/05/26 06:09:02;;;;;;;19.45;5.40;;;;;;;17.42;70.86;102794.16;5079505;28;20038;-87
2023/05/26 06:11:27;;;;;;;16.65;5.07;;;;;;;17.42;69.34;102804.97;5095707;28;20047;-85
2023/05/26 06:17:14;;;;;;;12.85;4.72;;;;;;;17.45;69.63;102809.97;5114501;28;20046;-83
2023/05/26 06:23:02;;;;;;;13.77;5.10;;;;;;;17.14;67.30;102810.63;5113884;28;20086;-84
2023/05/26 06:28:49;;;;;;;16.67;4.97;;;;;;;18.01;64.61;102803.16;5114418;28;20051;-82
2023/05/26 06:31:15;;;;;;;14.82;4.32;;;;;;;18.35;61.55;102812.75;5108205;28;20040;-84
2023/05/26 06:33:41;;;;;;;14.77;4.18;;;;;;;18.41;61.65;102804.56;5096018;28;20035;-83
2023/05/26 06:36:06;;;;;;;10.52;3.47;;;;;;;18.74;59.76;102804.38;5113615;28;20169;-81
2023/05/26 06:38:32;;;;;;;14.30;4.50;;;;;;;18.64;61.08;102812.16;5095891;28;20028;-82
2023/05/26 06:40:59;;;;;;;16.60;4.85;;;;;;;18.62;62.36;102800.72;5095868;28;20031;-83
2023/05/26 06:43:24;;;;;;;12.93;4.57;;;;;;;19.12;58.98;102817.84;5095810;28;20075;-82
2023/05/26 06:45:50;;;;;;;12.10;4.78;;;;;;;19.13;57.62;102797.81;5096701;28;20077;-76
2023/05/26 06:48:15;;;;;;;11.45;3.75;;;;;;;19.37;57.31;102811.53;5094443;28;20128;-79
2023/05/26 06:54:02;;;;;;;14.60;4.30;;;;;;;19.52;55.03;102816.59;5114371;28;20030;-82
2023/05/26 06:56:27;;;;;;;14.80;4.68;;;;;;;19.56;56.31;102815.13;5114642;28;20116;-82
2023/05/26 06:58:53;;;;;;;11.53;4.57;;;;;;;19.59;54.79;102817.38;5113747;28;20174;-81
2023/05/26 07:01:18;;;;;;;11.50;4.40;;;;;;;20.04;53.68;102815.19;5113241;28;20281;-80
2023/05/26 07:03:43;;;;;;;11.00;3.95;;;;;;;20.49;52.64;102818.31;5095358;28;20023;-81
2023/05/26 07:06:09;;;;;;;15.15;4.45;;;;;;;21.13;50.57;102821.31;5114359;28;20036;-80
2023/05/26 07:08:34;;;;;;;16.65;4.88;;;;;;;20.84;50.61;102817.59;5114495;28;20034;-79
2023/05/26 07:11:00;;;;;;;14.93;4.72;;;;;;;20.47;53.59;102823.16;5115636;28;20059;-79
2023/05/26 07:13:25;;;;;;;14.93;4.35;;;;;;;20.71;50.21;102816.75;5097136;28;20089;-78
2023/05/26 07:15:50;;;;;;;12.57;4.40;;;;;;;20.76;49.88;102807.88;5098856;28;20020;-80
2023/05/26 07:18:15;;;;;;;12.52;4.35;;;;;;;21.45;49.20;102822.63;5095467;28;20848;-81
2023/05/26 07:20:41;;;;;;;15.27;4.70;;;;;;;21.96;48.97;102819.06;5095649;28;20077;-80
2023/05/26 07:23:06;;;;;;;15.87;4.10;;;;;;;22.44;46.90;102819.72;5097111;28;20356;-80
2023/05/26 07:25:32;;;;;;;17.90;4.57;;;;;;;22.66;45.91;102828.03;5095676;28;20274;-82
2023/05/26 07:31:19;;;;;;;17.45;5.15;;;;;;;23.04;42.67;102825.41;5114347;28;20058;-82
2023/05/26 07:37:06;;;;;;;14.65;4.55;;;;;;;23.90;42.47;102823.06;5113000;28;20054;-80
2023/05/26 07:42:53;;;;;;;13.80;4.40;;;;;;;25.42;38.65;102820.06;5113448;28;20039;-84
2023/05/26 07:45:19;;;;;;;13.50;4.50;;;;;;;25.67;36.97;102830.38;5094841;28;20028;-83
2023/05/26 07:47:45;;;;;;;13.68;4.60;;;;;;;25.93;35.78;102824.72;5094364;28;20364;-80
2023/05/26 07:50:12;;;;;;;12.20;4.38;;;;;;;26.03;34.92;102828.63;5094910;28;20023;-79
2023/05/26 07:52:37;;;;;;;11.70;4.40;;;;;;;26.11;34.66;102834.41;5094300;28;20116;-81
2023/05/26 07:58:25;;;;;;;14.98;4.75;;;;;;;26.97;33.71;102830.94;5113103;28;20045;-79
2023/05/26 08:00:50;;;;;;;12.73;4.60;;;;;;;26.79;33.29;102829.56;5094285;28;20031;-80
2023/05/26 08:03:16;;;;;;;15.32;4.45;;;;;;;27.14;32.51;102841.63;5094741;28;20061;-79
2023/05/26 08:05:43;;;;;;;12.80;4.55;;;;;;;27.73;32.43;102828.03;5111585;28;20423;-80
2023/05/26 08:08:08;;;;;;;15.68;4.15;;;;;;;28.16;30.75;102839.38;5113133;28;20031;-80
2023/05/26 08:10:33;;;;;;;15.55;4.80;;;;;;;27.49;30.77;102834.44;5094678;28;20044;-79
2023/05/26 08:12:59;;;;;;;12.40;4.78;;;;;;;27.61;31.00;102830.25;5112856;28;20047;-78
2023/05/26 08:15:24;;;;;;;12.60;4.30;;;;;;;27.41;30.21;102836.63;5094861;28;20031;-83
2023/05/26 08:17:50;;;;;;;12.07;4.63;;;;;;;27.14;30.70;102830.66;5112666;28;20046;-82
2023/05/26 08:20:16;;;;;;;13.93;4.60;;;;;;;27.28;31.10;102834.50;5095229;28;20020;-83
2023/05/26 08:26:02;;;;;;;14.43;4.45;;;;;;;27.11;30.71;102825.72;5112317;28;20057;-81
2023/05/26 08:28:28;;;;;;;13.20;4.38;;;;;;;27.59;30.49;102834.41;5093875;28;20035;-82
2023/05/26 08:30:53;;;;;;;12.60;4.30;;;;;;;28.05;29.31;102824.88;5111740;28;20036;-81
2023/05/26 08:33:18;;;;;;;12.57;4.60;;;;;;;28.71;28.76;102834.63;5094119;28;20515;-81
2023/05/26 08:35:44;;;;;;;17.38;4.95;;;;;;;29.29;28.41;102832.72;5093518;28;20039;-79
2023/05/26 08:38:09;;;;;;;13.57;4.53;;;;;;;29.76;27.85;102825.53;5112122;28;20031;-80
2023/05/26 08:40:34;;;;;;;13.60;5.33;;;;;;;30.19;26.37;102823.59;5093705;28;20834;-84
2023/05/26 08:43:09;;;;;;;12.20;4.00;;;;;;;30.62;26.99;102826.25;5093026;28;20032;-83
2023/05/26 08:45:35;;;;;;;15.43;4.55;;;;;;;30.60;25.38;102827.66;5112745;28;20285;-83
2023/05/26 08:48:01;;;;;;;16.23;4.60;;;;;;;30.69;25.65;102829.47;5111676;28;20513;-80
2023/05/26 08:50:30;;;;;;;11.55;4.30;;;;;;;30.72;25.64;102828.03;5097105;28;20586;-79
2023/05/26 09:00:07;;;;;;;13.60;5.05;;;;;;;30.53;26.37;102826.09;5115710;28;20513;-81
2023/05/26 09:05:55;;;;;;;12.63;3.95;;;;;;;30.08;24.29;102824.06;5116067;28;20046;-79
2023/05/26 09:08:21;;;;;;;13.00;4.65;;;;;;;29.55;25.13;102829.69;5097264;28;20019;-81
2023/05/26 09:10:47;;;;;;;14.30;4.53;;;;;;;28.92;26.45;102827.84;5096820;28;20062;-79
2023/05/26 09:13:17;;;;;;;10.45;4.32;;;;;;;28.41;27.50;102821.91;5096851;28;20039;-80
2023/05/26 09:19:05;;;;;;;9.32;4.45;;;;;;;26.39;30.10;102813.91;5114833;28;21042;-78
2023/05/26 09:21:31;;;;;;;10.93;4.40;;;;;;;25.50;32.79;102820.41;5115047;28;20020;-79
2023/05/26 09:27:20;;;;;;;12.15;4.45;;;;;;;24.76;32.79;102823.16;5115067;28;20042;-81
2023/05/26 09:33:19;;;;;;;10.23;4.40;;;;;;;24.01;33.39;102815.84;5115517;28;20074;-80
2023/05/26 09:35:47;;;;;;;14.52;4.30;;;;;;;23.71;34.51;102822.59;5096370;28;20019;-80
2023/05/26 09:41:38;;;;;;;13.77;4.32;;;;;;;22.92;35.05;102821.13;5115289;28;20038;-81
2023/05/26 09:44:08;;;;;;;13.30;4.93;;;;;;;22.85;37.08;102815.84;5113737;28;20035;-80
2023/05/26 09:46:35;;;;;;;13.95;4.53;;;;;;;22.77;36.30;102813.47;5114328;28;20031;-80
2023/05/26 09:49:07;;;;;;;13.73;4.57;;;;;;;22.75;38.53;102815.63;5095540;28;20042;-82
2023/05/26 09:51:33;;;;;;;11.80;4.30;;;;;;;22.69;38.08;102814.72;5096228;28;20031;-81
2023/05/26 09:57:21;;;;;;;11.27;5.00;;;;;;;21.44;37.50;102818.25;5116786;28;20084;-80
2023/05/26 10:03:10;;;;;;;10.95;4.70;;;;;;;21.56;39.39;102807.31;5115375;28;20042;-79
2023/05/26 10:08:59;;;;;;;9.85;3.90;;;;;;;22.09;37.23;102803.53;5116569;28;20125;-80
2023/05/26 10:18:53;;;;;;;11.23;4.28;;;;;;;22.52;36.92;102792.88;5115248;28;20074;-79
2023/05/26 10:24:48;;;;;;;13.50;4.50;;;;;;;24.04;35.42;102805.22;5114653;28;20039;-78
2023/05/26 10:27:21;;;;;;;10.50;4.13;;;;;;;23.63;36.04;102798.44;5115358;28;20026;-82
2023/05/26 10:33:10;;;;;;;10.40;4.03;;;;;;;22.07;36.66;102787.44;5115906;28;20131;-80
2023/05/26 10:35:36;;;;;;;9.32;4.25;;;;;;;21.60;36.34;102790.25;5115243;28;20051;-81
2023/05/26 10:38:01;;;;;;;11.88;4.40;;;;;;;21.42;37.93;102781.44;5095828;28;20467;-81
2023/05/26 10:43:48;;;;;;;9.90;4.20;;;;;;;21.30;39.07;102776.81;5114296;28;20396;-81
2023/05/26 10:49:35;;;;;;;9.18;3.75;;;;;;;20.91;40.01;102774.81;5114101;28;20335;-78
2023/05/26 10:52:12;;;;;;;9.73;4.15;;;;;;;20.83;38.33;102786.03;5095346;28;20062;-74
2023/05/26 11:01:50;;;;;;;8.00;3.92;;;;;;;20.94;39.32;102779.75;5114182;28;20123;-82
2023/05/26 11:07:37;;;;;;;10.32;3.97;;;;;;;21.49;37.83;102757.63;5114068;28;20084;-79
2023/05/26 11:10:05;;;;;;;12.73;4.05;;;;;;;21.52;37.10;102770.75;5114111;28;20395;-80
2023/05/26 11:12:54;;;;;;;12.38;4.30;;;;;;;21.66;36.42;102772.13;5093939;28;20023;-77
2023/05/26 11:15:33;;;;;;;8.95;4.07;;;;;;;21.71;36.37;102774.97;5113095;28;20035;-81
2023/05/26 11:18:08;;;;;;;9.35;3.95;;;;;;;21.95;34.97;102767.53;5094890;28;20490;-77
2023/05/26 11:20:34;;;;;;;8.55;3.70;;;;;;;22.04;34.54;102765.31;5094925;28;20039;-82
2023/05/26 11:23:00;;;;;;;10.55;4.45;;;;;;;22.20;33.31;102770.78;5095228;28;20035;-79
2023/05/26 11:25:26;;;;;;;10.13;4.05;;;;;;;22.13;34.04;102759.19;5113014;28;20488;-80
2023/05/26 11:27:52;;;;;;;9.93;3.97;;;;;;;21.93;35.02;102765.06;5113628;28;20110;-81
2023/05/26 11:33:42;;;;;;;12.63;4.20;;;;;;;21.83;34.68;102756.69;5113936;28;20057;-80
2023/05/26 11:36:13;;;;;;;10.90;3.95;;;;;;;21.88;37.44;102755.97;5113043;28;20024;-80
2023/05/26 11:42:10;;;;;;;15.38;4.28;;;;;;;21.41;32.38;102768.91;5113668;28;20050;-81
2023/05/26 11:44:35;;;;;;;11.27;4.00;;;;;;;21.22;35.37;102762.72;5107703;28;20040;-80
2023/05/26 11:47:00;;;;;;;8.73;4.60;;;;;;;21.40;33.50;102762.63;5113261;28;20042;-80
2023/05/26 11:49:26;;;;;;;11.55;4.55;;;;;;;21.99;33.56;102751.56;5112866;28;20834;-83
2023/05/26 11:51:51;;;;;;;9.02;3.97;;;;;;;22.51;32.00;102757.66;5113299;28;20063;-81
2023/05/26 11:54:18;;;;;;;12.55;4.35;;;;;;;22.73;33.06;102760.50;5112512;28;20019;-82
2023/05/26 11:56:45;;;;;;;18.27;4.53;;;;;;;22.46;33.01;102754.88;5112642;28;20059;-77
2023/05/26 11:59:19;;;;;;;10.60;3.47;;;;;;;22.77;32.22;102753.47;5112874;28;20441;-80
2023/05/26 12:01:44;;;;;;;11.40;3.63;;;;;;;23.30;30.63;102757.53;5094475;28;20114;-80
2023/05/26 12:04:10;;;;;;;8.63;3.80;;;;;;;23.47;30.20;102756.41;5113099;28;20115;-79
2023/05/26 12:06:40;;;;;;;10.55;4.00;;;;;;;23.87;29.63;102757.19;5094131;28;20043;-81
2023/05/26 12:09:17;;;;;;;14.40;4.25;;;;;;;24.52;29.92;102742.53;5094512;28;20027;-81
2023/05/26 12:11:46;;;;;;;12.20;3.92;;;;;;;24.97;29.39;102751.06;5112583;28;20031;-81
2023/05/26 12:17:36;;;;;;;9.02;3.38;;;;;;;25.08;29.77;102738.28;5112538;28;20031;-82
2023/05/26 12:23:24;;;;;;;9.98;4.07;;;;;;;24.73;28.34;102747.06;5113938;28;20065;-79
2023/05/26 12:25:50;;;;;;;8.65;3.25;;;;;;;24.26;28.76;102747.72;5115526;28;20066;-82
2023/05/26 12:28:15;;;;;;;11.23;3.72;;;;;;;23.37;29.48;102745.34;5097780;28;20523;-82
2023/05/26 12:30:41;;;;;;;9.80;4.28;;;;;;;22.67;32.86;102736.94;5115450;28;20093;-79
2023/05/26 12:33:06;;;;;;;11.13;3.60;;;;;;;22.30;32.14;102732.00;5116812;28;20059;-80
2023/05/26 12:38:54;;;;;;;10.68;3.38;;;;;;;22.19;31.36;102730.97;5116646;28;20038;-83
2023/05/26 12:44:41;;;;;;;8.63;4.25;;;;;;;22.33;33.14;102734.22;5116287;28;20131;-80
2023/05/26 12:50:28;;;;;;;9.43;3.60;;;;;;;24.78;28.19;102732.59;5116055;28;20402;-81
2023/05/26 12:52:53;;;;;;;13.13;3.53;;;;;;;24.71;27.46;102728.19;5097087;28;20023;-79
2023/05/26 12:58:41;;;;;;;8.60;3.10;;;;;;;23.57;32.55;102746.72;5115696;28;20108;-80
2023/05/26 13:04:29;;;;;;;11.65;3.30;;;;;;;22.39;32.22;102729.66;5115412;28;20081;-75
2023/05/26 13:06:55;;;;;;;10.32;3.83;;;;;;;22.68;31.60;102730.41;5115261;28;20063;-79
2023/05/26 13:12:42;;;;;;;9.80;3.30;;;;;;;24.45;30.25;102725.50;5116727;28;20574;-80
2023/05/26 13:15:08;;;;;;;8.93;3.40;;;;;;;24.63;30.46;102714.16;5097644;28;20059;-80
2023/05/26 13:17:33;;;;;;;10.90;3.90;;;;;;;24.90;29.40;102706.69;5096675;28;20039;-80
2023/05/26 13:23:20;;;;;;;10.50;4.07;;;;;;;24.06;29.77;102706.56;5115884;28;20050;-78
2023/05/26 13:29:10;;;;;;;8.25;3.30;;;;;;;22.66;30.53;102700.66;5115951;28;20050;-78
2023/05/26 13:34:57;;;;;;;10.38;3.63;;;;;;;21.55;32.83;102694.88;5114366;28;20071;-79
2023/05/26 13:37:22;;;;;;;11.40;3.73;;;;;;;21.55;33.73;102686.69;5115063;28;20035;-79
2023/05/26 13:39:48;;;;;;;9.20;3.30;;;;;;;21.50;33.98;102688.50;5096739;28;20293;-78
2023/05/26 13:42:13;;;;;;;12.83;3.33;;;;;;;21.21;34.89;102679.44;5114226;28;20047;-78
2023/05/26 13:48:00;;;;;;;7.68;3.42;;;;;;;20.40;37.50;102678.41;5116432;28;20518;-79
2023/05/26 13:50:26;;;;;;;9.10;3.22;;;;;;;20.28;36.89;102682.97;5097545;28;20024;-79
2023/05/26 13:52:52;;;;;;;14.38;3.63;;;;;;;20.15;37.69;102691.31;5116172;28;20042;-79
2023/05/26 13:55:17;;;;;;;11.63;3.47;;;;;;;20.25;35.12;102684.28;5115452;28;20054;-78
2023/05/26 13:57:43;;;;;;;10.57;3.80;;;;;;;20.29;38.66;102682.75;5115282;28;20054;-78
2023/05/26 14:00:09;;;;;;;9.18;3.80;;;;;;;20.29;38.09;102665.63;5114201;28;20043;-79
2023/05/26 14:02:35;;;;;;;9.45;3.85;;;;;;;20.37;38.24;102663.38;5114773;28;20491;-79
2023/05/26 14:05:01;;;;;;;11.38;3.42;;;;;;;20.40;35.64;102656.66;5096179;28;20047;-78
2023/05/26 14:07:26;;;;;;;9.45;3.20;;;;;;;20.42;35.60;102670.84;5115411;28;20035;-79
2023/05/26 14:09:51;;;;;;;12.05;4.22;;;;;;;20.32;36.11;102667.88;5114697;28;20110;-77
2023/05/26 14:12:17;;;;;;;9.82;3.75;;;;;;;20.27;39.37;102649.56;5113604;28;20039;-80
2023/05/26 14:14:43;;;;;;;8.27;3.50;;;;;;;20.53;37.80;102661.91;5115142;28;20424;-79
2023/05/26 14:17:09;;;;;;;9.60;4.15;;;;;;;20.46;38.35;102663.06;5114191;28;20043;-78
2023/05/26 14:19:34;;;;;;;8.57;3.88;;;;;;;20.48;37.73;102645.44;5115098;28;20028;-78
2023/05/26 14:28:43;;;;;;;10.07;3.58;;;;;;;20.71;34.64;102645.44;5115149;28;20047;-78
2023/05/26 14:31:08;;;;;;;8.17;3.17;;;;;;;20.71;36.61;102653.59;5096418;28;20024;-80
2023/05/26 14:33:34;;;;;;;9.50;3.88;;;;;;;20.64;35.87;102646.63;5096780;28;20277;-77
2023/05/26 14:39:21;;;;;;;8.85;3.33;;;;;;;20.77;36.92;102648.28;5114311;28;20038;-77
2023/05/26 14:41:47;;;;;;;7.60;3.20;;;;;;;20.86;35.54;102639.53;5113136;28;20039;-77
2023/05/26 14:44:12;;;;;;;10.00;3.70;;;;;;;20.90;35.46;102653.47;5113784;28;20534;-77
2023/05/26 14:46:38;;;;;;;10.80;3.70;;;;;;;20.81;36.16;102646.72;5112993;28;20036;-78
2023/05/26 14:49:04;;;;;;;8.15;3.63;;;;;;;20.82;35.39;102649.25;5113611;28;20431;-79
2023/05/26 14:51:30;;;;;;;11.45;3.42;;;;;;;20.82;35.62;102641.06;5096695;28;20059;-78
2023/05/26 14:53:56;;;;;;;11.98;3.63;;;;;;;20.77;36.42;102646.38;5095986;28;20065;-79
2023/05/26 14:56:21;;;;;;;8.48;3.63;;;;;;;20.53;37.54;102642.88;5115080;28;20420;-77
2023/05/26 14:58:47;;;;;;;9.60;3.53;;;;;;;20.25;39.84;102646.25;5096118;28;20547;-78
2023/05/26 15:04:34;;;;;;;10.50;3.35;;;;;;;20.26;38.18;102633.50;5113771;28;20051;-78
2023/05/26 15:10:23;;;;;;;8.65;3.30;;;;;;;20.41;36.56;102645.56;5113540;28;20038;-79
2023/05/26 15:12:48;;;;;;;9.20;3.25;;;;;;;20.41;39.65;102642.84;5095562;28;20399;-78
2023/05/26 15:15:13;;;;;;;7.22;3.33;;;;;;;20.52;36.71;102640.34;5114543;28;20035;-78
2023/05/26 15:17:39;;;;;;;9.35;3.72;;;;;;;20.45;37.52;102645.91;5095599;28;20031;-78
2023/05/26 15:20:06;;;;;;;11.45;3.83;;;;;;;20.35;39.35;102632.91;5096297;28;20092;-78
2023/05/26 15:25:53;;;;;;;9.73;3.40;;;;;;;20.29;38.41;102622.97;5114951;28;20549;-78
2023/05/26 15:28:19;;;;;;;12.65;3.72;;;;;;;20.18;41.52;102633.81;5095026;28;20132;-78
2023/05/26 15:34:05;;;;;;;12.50;3.78;;;;;;;20.27;41.30;102627.00;5114104;28;20084;-77
2023/05/26 15:39:53;;;;;;;8.75;3.28;;;;;;;20.32;40.59;102627.09;5114072;28;20399;-80
2023/05/26 15:42:18;;;;;;;9.27;3.22;;;;;;;20.36;41.12;102628.28;5094825;28;20027;-79
2023/05/26 15:48:06;;;;;;;7.70;3.60;;;;;;;20.40;40.90;102624.06;5113438;28;20142;-78
2023/05/26 15:53:53;;;;;;;9.77;3.63;;;;;;;20.33;43.07;102624.16;5113075;28;20046;-77
2023/05/26 15:56:18;;;;;;;9.77;3.50;;;;;;;20.17;41.44;102615.84;5111872;28;20048;-76
2023/05/26 15:58:44;;;;;;;12.18;3.60;;;;;;;20.21;43.00;102636.06;5093394;28;20028;-74
2023/05/26 16:01:10;;;;;;;13.93;3.95;;;;;;;20.18;43.89;102628.38;5113244;28;20088;-79